sensor_id;sensor_type;location;lat;lon;timestamp;pressure;altitude;pressure_sealevel;temperature;humidity
4273;BME280;63887;53.656;9.810;2022-12-20T00:01:09;101450.03;;;5.23;95.35
4273;BME280;63887;53.656;9.810;2022-12-20T00:03:37;101450.03;;;5.23;95.23
4273;BME280;63887;53.656;9.810;2022-12-20T00:06:04;101437.84;;;5.25;95.10
4273;BME280;63887;53.656;9.810;2022-12-20T00:08:30;101443.19;;;5.19;95.40
4273;BME280;63887;53.656;9.810;2022-12-20T00:10:59;101450.13;;;5.19;95.45
4273;BME280;63887;53.656;9.810;2022-12-20T00:13:27;101439.69;;;5.22;95.94
4273;BME280;63887;53.656;9.810;2022-12-20T00:16:02;101440.56;;;5.21;95.61
4273;BME280;63887;53.656;9.810;2022-12-20T00:18:30;101431.84;;;5.23;95.45
4273;BME280;63887;53.656;9.810;2022-12-20T00:20:57;101439.31;;;5.38;95.08
4273;BME280;63887;53.656;9.810;2022-12-20T00:23:24;101441.09;;;5.36;95.43
4273;BME280;63887;53.656;9.810;2022-12-20T00:25:50;101448.03;;;5.34;95.17
4273;BME280;63887;53.656;9.810;2022-12-20T00:28:17;101434.03;;;5.42;94.75
4273;BME280;63887;53.656;9.810;2022-12-20T00:30:43;101429.63;;;5.44;95.12
4273;BME280;63887;53.656;9.810;2022-12-20T00:33:10;101432.13;;;5.48;94.75
4273;BME280;63887;53.656;9.810;2022-12-20T00:35:41;101425.41;;;5.39;94.64
4273;BME280;63887;53.656;9.810;2022-12-20T00:38:08;101418.63;;;5.32;95.71
4273;BME280;63887;53.656;9.810;2022-12-20T00:40:34;101428.00;;;5.39;95.49
4273;BME280;63887;53.656;9.810;2022-12-20T00:43:01;101412.47;;;5.36;95.75
4273;BME280;63887;53.656;9.810;2022-12-20T00:45:29;101420.31;;;5.33;95.39
4273;BME280;63887;53.656;9.810;2022-12-20T00:47:56;101409.91;;;5.33;95.04
4273;BME280;63887;53.656;9.810;2022-12-20T00:50:23;101416.06;;;5.31;95.68
4273;BME280;63887;53.656;9.810;2022-12-20T00:52:51;101413.34;;;5.35;95.14
4273;BME280;63887;53.656;9.810;2022-12-20T00:55:17;101419.44;;;5.34;95.84
4273;BME280;63887;53.656;9.810;2022-12-20T00:57:44;101414.50;;;5.24;95.42
4273;BME280;63887;53.656;9.810;2022-12-20T01:00:12;101410.09;;;5.26;95.40
4273;BME280;63887;53.656;9.810;2022-12-20T01:02:39;101409.09;;;5.31;95.31
4273;BME280;63887;53.656;9.810;2022-12-20T01:05:07;101408.25;;;5.31;95.72
4273;BME280;63887;53.656;9.810;2022-12-20T01:07:33;101410.03;;;5.29;95.65
4273;BME280;63887;53.656;9.810;2022-12-20T01:10:01;101407.34;;;5.32;95.29
4273;BME280;63887;53.656;9.810;2022-12-20T01:12:28;101403.63;;;5.44;95.33
4273;BME280;63887;53.656;9.810;2022-12-20T01:14:54;101412.91;;;5.55;95.77
4273;BME280;63887;53.656;9.810;2022-12-20T01:17:20;101416.41;;;5.54;95.60
4273;BME280;63887;53.656;9.810;2022-12-20T01:19:47;101414.72;;;5.50;95.58
4273;BME280;63887;53.656;9.810;2022-12-20T01:22:13;101413.06;;;5.48;95.44
4273;BME280;63887;53.656;9.810;2022-12-20T01:24:40;101413.19;;;5.43;95.14
4273;BME280;63887;53.656;9.810;2022-12-20T01:27:08;101408.91;;;5.41;95.28
4273;BME280;63887;53.656;9.810;2022-12-20T01:29:34;101404.13;;;5.59;94.99
4273;BME280;63887;53.656;9.810;2022-12-20T01:32:01;101402.38;;;5.60;95.41
4273;BME280;63887;53.656;9.810;2022-12-20T01:34:27;101407.44;;;5.66;95.11
4273;BME280;63887;53.656;9.810;2022-12-20T01:36:54;101413.28;;;5.76;94.04
4273;BME280;63887;53.656;9.810;2022-12-20T01:39:21;101410.00;;;5.67;94.74
4273;BME280;63887;53.656;9.810;2022-12-20T01:41:47;101407.41;;;5.67;94.66
4273;BME280;63887;53.656;9.810;2022-12-20T01:44:53;101408.25;;;5.68;94.83
4273;BME280;63887;53.656;9.810;2022-12-20T01:47:21;101399.53;;;5.71;95.68
4273;BME280;63887;53.656;9.810;2022-12-20T01:49:50;101404.66;;;5.74;94.50
4273;BME280;63887;53.656;9.810;2022-12-20T01:52:18;101388.94;;;5.77;95.46
4273;BME280;63887;53.656;9.810;2022-12-20T01:54:48;101388.09;;;5.76;94.91
4273;BME280;63887;53.656;9.810;2022-12-20T01:57:20;101393.34;;;5.75;95.13
4273;BME280;63887;53.656;9.810;2022-12-20T01:59:49;101387.78;;;5.88;95.18
4273;BME280;63887;53.656;9.810;2022-12-20T02:02:17;101383.13;;;6.03;93.63
4273;BME280;63887;53.656;9.810;2022-12-20T02:04:44;101389.69;;;6.17;93.49
4273;BME280;63887;53.656;9.810;2022-12-20T02:07:12;101383.38;;;6.26;92.98
4273;BME280;63887;53.656;9.810;2022-12-20T02:09:43;101382.91;;;6.12;93.28
4273;BME280;63887;53.656;9.810;2022-12-20T02:12:11;101389.91;;;6.08;93.86
4273;BME280;63887;53.656;9.810;2022-12-20T02:14:53;101389.78;;;6.14;93.67
4273;BME280;63887;53.656;9.810;2022-12-20T02:17:34;101375.00;;;6.15;93.41
4273;BME280;63887;53.656;9.810;2022-12-20T02:20:21;101376.78;;;6.13;93.52
4273;BME280;63887;53.656;9.810;2022-12-20T02:23:09;101375.00;;;6.15;93.65
4273;BME280;63887;53.656;9.810;2022-12-20T02:25:45;101380.97;;;6.18;93.45
4273;BME280;63887;53.656;9.810;2022-12-20T02:28:27;101370.69;;;6.14;93.16
4273;BME280;63887;53.656;9.810;2022-12-20T02:31:04;101371.28;;;6.23;93.76
4273;BME280;63887;53.656;9.810;2022-12-20T02:33:34;101377.47;;;6.19;93.37
4273;BME280;63887;53.656;9.810;2022-12-20T02:36:02;101365.97;;;6.28;93.28
4273;BME280;63887;53.656;9.810;2022-12-20T02:38:31;101366.25;;;6.17;93.61
4273;BME280;63887;53.656;9.810;2022-12-20T02:41:02;101367.94;;;6.18;93.31
4273;BME280;63887;53.656;9.810;2022-12-20T02:43:31;101366.19;;;6.19;93.88
4273;BME280;63887;53.656;9.810;2022-12-20T02:46:19;101373.16;;;6.18;93.74
4273;BME280;63887;53.656;9.810;2022-12-20T02:48:47;101354.91;;;6.18;93.99
4273;BME280;63887;53.656;9.810;2022-12-20T02:51:16;101357.47;;;6.20;93.75
4273;BME280;63887;53.656;9.810;2022-12-20T02:53:43;101357.34;;;6.26;94.04
4273;BME280;63887;53.656;9.810;2022-12-20T02:56:15;101350.09;;;6.36;93.91
4273;BME280;63887;53.656;9.810;2022-12-20T02:58:49;101348.25;;;6.39;92.90
4273;BME280;63887;53.656;9.810;2022-12-20T03:01:22;101357.16;;;6.32;93.79
4273;BME280;63887;53.656;9.810;2022-12-20T03:03:53;101358.78;;;6.36;93.74
4273;BME280;63887;53.656;9.810;2022-12-20T03:06:20;101346.88;;;6.27;93.86
4273;BME280;63887;53.656;9.810;2022-12-20T03:08:47;101345.44;;;6.47;93.65
4273;BME280;63887;53.656;9.810;2022-12-20T03:11:13;101343.69;;;6.47;93.25
4273;BME280;63887;53.656;9.810;2022-12-20T03:13:40;101348.25;;;6.39;93.48
4273;BME280;63887;53.656;9.810;2022-12-20T03:16:08;101343.22;;;6.33;93.94
4273;BME280;63887;53.656;9.810;2022-12-20T03:18:37;101344.22;;;6.29;93.89
4273;BME280;63887;53.656;9.810;2022-12-20T03:21:04;101345.03;;;6.31;93.65
4273;BME280;63887;53.656;9.810;2022-12-20T03:23:30;101349.72;;;6.49;93.72
4273;BME280;63887;53.656;9.810;2022-12-20T03:25:57;101339.16;;;6.54;93.13
4273;BME280;63887;53.656;9.810;2022-12-20T03:28:30;101348.66;;;6.56;93.86
4273;BME280;63887;53.656;9.810;2022-12-20T03:30:57;101347.75;;;6.57;93.89
4273;BME280;63887;53.656;9.810;2022-12-20T03:33:24;101352.19;;;6.54;94.05
4273;BME280;63887;53.656;9.810;2022-12-20T03:35:52;101351.97;;;6.62;92.93
4273;BME280;63887;53.656;9.810;2022-12-20T03:38:19;101345.97;;;6.60;92.92
4273;BME280;63887;53.656;9.810;2022-12-20T03:40:46;101358.22;;;6.56;93.72
4273;BME280;63887;53.656;9.810;2022-12-20T03:43:17;101349.50;;;6.57;93.89
4273;BME280;63887;53.656;9.810;2022-12-20T03:45:43;101343.06;;;6.70;93.81
4273;BME280;63887;53.656;9.810;2022-12-20T03:48:10;101344.91;;;6.65;93.99
4273;BME280;63887;53.656;9.810;2022-12-20T03:50:36;101342.75;;;6.79;93.47
4273;BME280;63887;53.656;9.810;2022-12-20T03:53:05;101338.59;;;6.74;93.56
4273;BME280;63887;53.656;9.810;2022-12-20T03:55:32;101333.53;;;6.97;93.03
4273;BME280;63887;53.656;9.810;2022-12-20T03:57:59;101328.50;;;6.91;92.88
4273;BME280;63887;53.656;9.810;2022-12-20T04:00:30;101324.41;;;6.82;93.57
4273;BME280;63887;53.656;9.810;2022-12-20T04:03:14;101330.53;;;6.81;93.68
4273;BME280;63887;53.656;9.810;2022-12-20T04:05:41;101338.44;;;6.78;93.56
4273;BME280;63887;53.656;9.810;2022-12-20T04:08:09;101340.19;;;7.07;92.67
4273;BME280;63887;53.656;9.810;2022-12-20T04:10:35;101343.84;;;7.02;92.60
4273;BME280;63887;53.656;9.810;2022-12-20T04:13:25;101342.25;;;6.96;93.08
4273;BME280;63887;53.656;9.810;2022-12-20T04:15:51;101335.16;;;7.01;92.84
4273;BME280;63887;53.656;9.810;2022-12-20T04:18:19;101335.16;;;7.01;92.77
4273;BME280;63887;53.656;9.810;2022-12-20T04:20:51;101332.50;;;7.03;92.51
4273;BME280;63887;53.656;9.810;2022-12-20T04:23:24;101330.66;;;7.06;92.62
4273;BME280;63887;53.656;9.810;2022-12-20T04:25:51;101328.19;;;7.02;93.01
4273;BME280;63887;53.656;9.810;2022-12-20T04:28:17;101326.59;;;6.96;93.13
4273;BME280;63887;53.656;9.810;2022-12-20T04:30:44;101323.03;;;6.99;92.46
4273;BME280;63887;53.656;9.810;2022-12-20T04:33:14;101335.53;;;6.89;93.20
4273;BME280;63887;53.656;9.810;2022-12-20T04:35:40;101327.69;;;6.89;93.02
4273;BME280;63887;53.656;9.810;2022-12-20T04:38:07;101324.28;;;6.87;92.82
4273;BME280;63887;53.656;9.810;2022-12-20T04:40:35;101323.44;;;6.86;93.04
4273;BME280;63887;53.656;9.810;2022-12-20T04:43:04;101323.34;;;6.90;93.14
4273;BME280;63887;53.656;9.810;2022-12-20T04:45:31;101327.91;;;6.81;93.63
4273;BME280;63887;53.656;9.810;2022-12-20T04:47:58;101325.09;;;6.89;92.90
4273;BME280;63887;53.656;9.810;2022-12-20T04:50:33;101319.63;;;6.97;93.49
4273;BME280;63887;53.656;9.810;2022-12-20T04:53:00;101321.63;;;6.88;94.24
4273;BME280;63887;53.656;9.810;2022-12-20T04:55:46;101324.41;;;6.82;94.11
4273;BME280;63887;53.656;9.810;2022-12-20T04:58:14;101325.47;;;6.77;94.48
4273;BME280;63887;53.656;9.810;2022-12-20T05:00:41;101328.06;;;6.77;95.27
4273;BME280;63887;53.656;9.810;2022-12-20T05:03:21;101326.41;;;6.74;95.30
4273;BME280;63887;53.656;9.810;2022-12-20T05:05:48;101321.25;;;6.73;95.48
4273;BME280;63887;53.656;9.810;2022-12-20T05:08:15;101321.25;;;6.73;95.84
4273;BME280;63887;53.656;9.810;2022-12-20T05:10:42;101323.34;;;6.90;95.18
4273;BME280;63887;53.656;9.810;2022-12-20T05:13:10;101317.13;;;6.94;95.55
4273;BME280;63887;53.656;9.810;2022-12-20T05:15:41;101312.97;;;6.88;95.27
4273;BME280;63887;53.656;9.810;2022-12-20T05:18:07;101311.47;;;6.79;95.71
4273;BME280;63887;53.656;9.810;2022-12-20T05:20:43;101312.31;;;6.80;95.99
4273;BME280;63887;53.656;9.810;2022-12-20T05:23:10;101301.94;;;6.78;96.62
4273;BME280;63887;53.656;9.810;2022-12-20T05:26:07;101303.59;;;6.81;96.29
4273;BME280;63887;53.656;9.810;2022-12-20T05:28:44;101297.53;;;6.80;96.72
4273;BME280;63887;53.656;9.810;2022-12-20T05:31:10;101297.38;;;6.86;96.46
4273;BME280;63887;53.656;9.810;2022-12-20T05:33:37;101295.03;;;6.77;96.51
4273;BME280;63887;53.656;9.810;2022-12-20T05:36:04;101300.03;;;6.85;96.66
4273;BME280;63887;53.656;9.810;2022-12-20T05:38:31;101295.56;;;6.88;96.25
4273;BME280;63887;53.656;9.810;2022-12-20T05:40:58;101283.44;;;6.87;96.13
4273;BME280;63887;53.656;9.810;2022-12-20T05:43:25;101284.41;;;6.83;97.12
4273;BME280;63887;53.656;9.810;2022-12-20T05:45:53;101286.16;;;6.83;96.47
4273;BME280;63887;53.656;9.810;2022-12-20T05:48:29;101290.63;;;6.79;97.01
4273;BME280;63887;53.656;9.810;2022-12-20T05:50:55;101290.50;;;6.82;96.75
4273;BME280;63887;53.656;9.810;2022-12-20T05:53:25;101289.59;;;6.85;96.16
4273;BME280;63887;53.656;9.810;2022-12-20T05:55:54;101277.41;;;6.85;96.86
4273;BME280;63887;53.656;9.810;2022-12-20T05:58:26;101285.25;;;6.84;96.80
4273;BME280;63887;53.656;9.810;2022-12-20T06:01:04;101293.13;;;6.82;97.42
4273;BME280;63887;53.656;9.810;2022-12-20T06:03:35;101291.91;;;6.94;96.50
4273;BME280;63887;53.656;9.810;2022-12-20T06:06:06;101291.31;;;6.86;96.90
4273;BME280;63887;53.656;9.810;2022-12-20T06:08:32;101293.28;;;7.06;97.06
4273;BME280;63887;53.656;9.810;2022-12-20T06:11:02;101283.91;;;7.00;96.57
4273;BME280;63887;53.656;9.810;2022-12-20T06:13:32;101284.75;;;7.01;96.67
4273;BME280;63887;53.656;9.810;2022-12-20T06:15:59;101292.84;;;6.92;97.10
4273;BME280;63887;53.656;9.810;2022-12-20T06:18:27;101289.44;;;6.90;96.86
4273;BME280;63887;53.656;9.810;2022-12-20T06:20:58;101299.56;;;7.00;96.89
4273;BME280;63887;53.656;9.810;2022-12-20T06:23:26;101286.78;;;7.19;96.80
4273;BME280;63887;53.656;9.810;2022-12-20T06:26:12;101288.47;;;7.20;96.22
4273;BME280;63887;53.656;9.810;2022-12-20T06:28:48;101282.25;;;7.24;96.08
4273;BME280;63887;53.656;9.810;2022-12-20T06:31:20;101278.09;;;7.18;96.25
4273;BME280;63887;53.656;9.810;2022-12-20T06:33:52;101273.41;;;7.28;96.37
4273;BME280;63887;53.656;9.810;2022-12-20T06:36:20;101261.31;;;7.26;97.00
4273;BME280;63887;53.656;9.810;2022-12-20T06:38:47;101269.59;;;7.38;96.33
4273;BME280;63887;53.656;9.810;2022-12-20T06:41:13;101262.94;;;7.30;96.22
4273;BME280;63887;53.656;9.810;2022-12-20T06:43:40;101258.31;;;7.38;96.92
4273;BME280;63887;53.656;9.810;2022-12-20T06:46:07;101259.84;;;7.43;96.69
4273;BME280;63887;53.656;9.810;2022-12-20T06:48:33;101264.22;;;7.43;96.85
4273;BME280;63887;53.656;9.810;2022-12-20T06:51:01;101270.78;;;7.55;96.39
4273;BME280;63887;53.656;9.810;2022-12-20T06:53:28;101276.06;;;7.53;96.38
4273;BME280;63887;53.656;9.810;2022-12-20T06:55:54;101274.31;;;7.54;96.88
4273;BME280;63887;53.656;9.810;2022-12-20T06:58:21;101272.38;;;7.59;96.81
4273;BME280;63887;53.656;9.810;2022-12-20T07:00:48;101277.72;;;7.56;96.77
4273;BME280;63887;53.656;9.810;2022-12-20T07:03:14;101290.53;;;7.63;96.45
4273;BME280;63887;53.656;9.810;2022-12-20T07:05:41;101299.50;;;7.55;96.35
4273;BME280;63887;53.656;9.810;2022-12-20T07:08:09;101303.63;;;7.62;95.97
4273;BME280;63887;53.656;9.810;2022-12-20T07:10:36;101307.88;;;7.64;96.43
4273;BME280;63887;53.656;9.810;2022-12-20T07:13:02;101294.38;;;7.78;96.18
4273;BME280;63887;53.656;9.810;2022-12-20T07:15:29;101294.56;;;7.72;95.85
4273;BME280;63887;53.656;9.810;2022-12-20T07:17:56;101287.56;;;7.72;96.27
4273;BME280;63887;53.656;9.810;2022-12-20T07:20:22;101283.25;;;7.71;96.02
4273;BME280;63887;53.656;9.810;2022-12-20T07:22:48;101283.44;;;7.67;96.20
4273;BME280;63887;53.656;9.810;2022-12-20T07:25:16;101285.72;;;7.76;96.13
4273;BME280;63887;53.656;9.810;2022-12-20T07:27:45;101274.50;;;7.74;95.77
4273;BME280;63887;53.656;9.810;2022-12-20T07:30:12;101270.50;;;7.64;96.29
4273;BME280;63887;53.656;9.810;2022-12-20T07:32:39;101265.16;;;7.67;96.50
4273;BME280;63887;53.656;9.810;2022-12-20T07:35:06;101270.59;;;7.61;96.25
4273;BME280;63887;53.656;9.810;2022-12-20T07:37:34;101270.31;;;7.68;96.55
4273;BME280;63887;53.656;9.810;2022-12-20T07:40:00;101264.72;;;7.79;96.63
4273;BME280;63887;53.656;9.810;2022-12-20T07:42:28;101266.97;;;7.65;96.41
4273;BME280;63887;53.656;9.810;2022-12-20T07:44:55;101262.66;;;7.64;96.35
4273;BME280;63887;53.656;9.810;2022-12-20T07:47:21;101269.78;;;7.59;96.95
4273;BME280;63887;53.656;9.810;2022-12-20T07:49:48;101285.53;;;7.56;96.87
4273;BME280;63887;53.656;9.810;2022-12-20T07:52:16;101287.56;;;7.72;96.81
4273;BME280;63887;53.656;9.810;2022-12-20T07:54:47;101278.22;;;7.67;96.72
4273;BME280;63887;53.656;9.810;2022-12-20T07:57:18;101271.88;;;7.74;96.97
4273;BME280;63887;53.656;9.810;2022-12-20T07:59:49;101277.78;;;7.79;96.76
4273;BME280;63887;53.656;9.810;2022-12-20T08:02:20;101270.91;;;7.76;96.80
4273;BME280;63887;53.656;9.810;2022-12-20T08:04:48;101270.16;;;7.73;96.80
4273;BME280;63887;53.656;9.810;2022-12-20T08:07:15;101263.88;;;7.78;96.14
4273;BME280;63887;53.656;9.810;2022-12-20T08:09:43;101264.06;;;7.72;96.41
4273;BME280;63887;53.656;9.810;2022-12-20T08:12:13;101266.56;;;7.77;96.73
4273;BME280;63887;53.656;9.810;2022-12-20T08:14:41;101261.94;;;7.84;96.45
4273;BME280;63887;53.656;9.810;2022-12-20T08:17:09;101255.94;;;7.82;96.57
4273;BME280;63887;53.656;9.810;2022-12-20T08:19:36;101259.69;;;7.73;96.03
4273;BME280;63887;53.656;9.810;2022-12-20T08:22:03;101264.19;;;7.69;96.24
4273;BME280;63887;53.656;9.810;2022-12-20T08:24:31;101260.78;;;7.67;96.24
4273;BME280;63887;53.656;9.810;2022-12-20T08:26:58;101261.38;;;7.75;96.35
4273;BME280;63887;53.656;9.810;2022-12-20T08:29:25;101255.03;;;7.83;96.41
4273;BME280;63887;53.656;9.810;2022-12-20T08:31:51;101252.22;;;7.89;96.11
4273;BME280;63887;53.656;9.810;2022-12-20T08:34:19;101250.34;;;7.92;95.45
4273;BME280;63887;53.656;9.810;2022-12-20T08:36:45;101244.38;;;8.12;95.18
4273;BME280;63887;53.656;9.810;2022-12-20T08:39:12;101233.09;;;8.12;94.32
4273;BME280;63887;53.656;9.810;2022-12-20T08:41:38;101235.50;;;8.16;94.85
4273;BME280;63887;53.656;9.810;2022-12-20T08:44:05;101220.91;;;8.35;93.64
4273;BME280;63887;53.656;9.810;2022-12-20T08:46:32;101220.84;;;8.37;93.59
4273;BME280;63887;53.656;9.810;2022-12-20T08:48:59;101213.97;;;8.33;92.53
4273;BME280;63887;53.656;9.810;2022-12-20T08:51:27;101212.16;;;8.36;92.83
4273;BME280;63887;53.656;9.810;2022-12-20T08:53:53;101222.41;;;8.41;92.55
4273;BME280;63887;53.656;9.810;2022-12-20T08:56:20;101221.63;;;8.39;92.35
4273;BME280;63887;53.656;9.810;2022-12-20T08:58:47;101239.88;;;8.41;93.01
4273;BME280;63887;53.656;9.810;2022-12-20T09:01:16;101227.88;;;8.35;92.81
4273;BME280;63887;53.656;9.810;2022-12-20T09:03:43;101234.28;;;8.50;91.98
4273;BME280;63887;53.656;9.810;2022-12-20T09:06:11;101220.91;;;8.57;91.50
4273;BME280;63887;53.656;9.810;2022-12-20T09:08:40;101219.78;;;8.64;91.97
4273;BME280;63887;53.656;9.810;2022-12-20T09:11:08;101223.78;;;8.51;90.61
4273;BME280;63887;53.656;9.810;2022-12-20T09:13:36;101215.16;;;8.49;91.65
4273;BME280;63887;53.656;9.810;2022-12-20T09:16:04;101225.75;;;8.45;91.70
4273;BME280;63887;53.656;9.810;2022-12-20T09:18:31;101223.78;;;8.51;91.71
4273;BME280;63887;53.656;9.810;2022-12-20T09:20:58;101234.25;;;8.51;91.74
4273;BME280;63887;53.656;9.810;2022-12-20T09:23:26;101232.94;;;8.61;91.34
4273;BME280;63887;53.656;9.810;2022-12-20T09:25:54;101241.59;;;8.63;90.35
4273;BME280;63887;53.656;9.810;2022-12-20T09:28:21;101245.88;;;8.66;91.04
4273;BME280;63887;53.656;9.810;2022-12-20T09:30:48;101246.22;;;8.57;90.85
4273;BME280;63887;53.656;9.810;2022-12-20T09:33:14;101240.63;;;8.88;89.83
4273;BME280;63887;53.656;9.810;2022-12-20T09:35:44;101242.03;;;8.75;90.06
4273;BME280;63887;53.656;9.810;2022-12-20T09:38:10;101232.78;;;8.88;90.20
4273;BME280;63887;53.656;9.810;2022-12-20T09:40:37;101237.28;;;8.84;90.24
4273;BME280;63887;53.656;9.810;2022-12-20T09:43:08;101234.53;;;8.87;90.29
4273;BME280;63887;53.656;9.810;2022-12-20T09:45:35;101236.56;;;8.81;90.64
4273;BME280;63887;53.656;9.810;2022-12-20T09:48:03;101227.00;;;8.80;90.93
4273;BME280;63887;53.656;9.810;2022-12-20T09:50:39;101230.72;;;8.74;91.28
4273;BME280;63887;53.656;9.810;2022-12-20T09:53:22;101224.88;;;8.89;91.43
4273;BME280;63887;53.656;9.810;2022-12-20T09:55:58;101230.78;;;8.73;91.99
4273;BME280;63887;53.656;9.810;2022-12-20T09:58:36;101229.84;;;8.74;91.56
4273;BME280;63887;53.656;9.810;2022-12-20T10:01:15;101219.03;;;8.83;92.50
4273;BME280;63887;53.656;9.810;2022-12-20T10:03:42;101220.97;;;8.78;92.60
4273;BME280;63887;53.656;9.810;2022-12-20T10:06:15;101221.81;;;8.56;93.34
4273;BME280;63887;53.656;9.810;2022-12-20T10:08:49;101216.09;;;8.47;93.89
4273;BME280;63887;53.656;9.810;2022-12-20T10:11:33;101216.78;;;8.74;93.56
4273;BME280;63887;53.656;9.810;2022-12-20T10:14:11;101214.53;;;8.64;93.35
4273;BME280;63887;53.656;9.810;2022-12-20T10:16:42;101214.41;;;8.68;94.04
4273;BME280;63887;53.656;9.810;2022-12-20T10:19:28;101206.50;;;8.69;94.17
4273;BME280;63887;53.656;9.810;2022-12-20T10:22:04;101205.06;;;8.84;94.09
4273;BME280;63887;53.656;9.810;2022-12-20T10:24:34;101200.19;;;8.75;94.13
4273;BME280;63887;53.656;9.810;2022-12-20T10:27:10;101189.41;;;8.82;94.08
4273;BME280;63887;53.656;9.810;2022-12-20T10:29:39;101182.94;;;8.91;93.45
4273;BME280;63887;53.656;9.810;2022-12-20T10:32:11;101175.66;;;8.99;93.17
4273;BME280;63887;53.656;9.810;2022-12-20T10:34:40;101167.44;;;9.08;92.90
4273;BME280;63887;53.656;9.810;2022-12-20T10:37:12;101165.19;;;9.19;92.40
4273;BME280;63887;53.656;9.810;2022-12-20T10:39:41;101160.69;;;9.43;91.46
4273;BME280;63887;53.656;9.810;2022-12-20T10:42:24;101158.97;;;9.42;91.55
4273;BME280;63887;53.656;9.810;2022-12-20T10:44:52;101160.88;;;9.39;90.69
4273;BME280;63887;53.656;9.810;2022-12-20T10:47:24;101154.78;;;9.59;90.89
4273;BME280;63887;53.656;9.810;2022-12-20T10:50:07;101151.97;;;9.82;89.67
4273;BME280;63887;53.656;9.810;2022-12-20T10:52:34;101142.47;;;9.79;88.77
4273;BME280;63887;53.656;9.810;2022-12-20T10:55:02;101138.31;;;9.94;88.47
4273;BME280;63887;53.656;9.810;2022-12-20T10:57:29;101145.59;;;9.88;88.59
4273;BME280;63887;53.656;9.810;2022-12-20T10:59:59;101143.19;;;9.83;88.14
4273;BME280;63887;53.656;9.810;2022-12-20T11:02:27;101147.00;;;9.76;88.36
4273;BME280;63887;53.656;9.810;2022-12-20T11:04:58;101146.94;;;9.77;88.12
4273;BME280;63887;53.656;9.810;2022-12-20T11:07:27;101146.16;;;9.75;87.71
4273;BME280;63887;53.656;9.810;2022-12-20T11:09:55;101143.81;;;9.69;87.54
4273;BME280;63887;53.656;9.810;2022-12-20T11:12:22;101140.34;;;9.69;87.38
4273;BME280;63887;53.656;9.810;2022-12-20T11:14:49;101128.72;;;9.55;88.02
4273;BME280;63887;53.656;9.810;2022-12-20T11:17:35;101124.59;;;9.50;87.93
4273;BME280;63887;53.656;9.810;2022-12-20T11:20:24;101130.94;;;9.44;87.81
4273;BME280;63887;53.656;9.810;2022-12-20T11:23:02;101121.19;;;9.48;88.39
4273;BME280;63887;53.656;9.810;2022-12-20T11:25:38;101120.19;;;9.50;88.58
4273;BME280;63887;53.656;9.810;2022-12-20T11:28:17;101123.19;;;9.62;87.53
4273;BME280;63887;53.656;9.810;2022-12-20T11:30:55;101115.56;;;9.57;87.75
4273;BME280;63887;53.656;9.810;2022-12-20T11:33:40;101115.41;;;9.60;87.73
4273;BME280;63887;53.656;9.810;2022-12-20T11:36:17;101110.47;;;9.54;87.46
4273;BME280;63887;53.656;9.810;2022-12-20T11:38:48;101112.41;;;9.49;86.90
4273;BME280;63887;53.656;9.810;2022-12-20T11:41:23;101109.66;;;9.52;86.90
4273;BME280;63887;53.656;9.810;2022-12-20T11:44:04;101090.28;;;9.56;86.97
4273;BME280;63887;53.656;9.810;2022-12-20T11:46:41;101095.59;;;9.54;87.71
4273;BME280;63887;53.656;9.810;2022-12-20T11:49:27;101094.94;;;9.49;86.96
4273;BME280;63887;53.656;9.810;2022-12-20T11:52:03;101096.94;;;9.63;87.05
4273;BME280;63887;53.656;9.810;2022-12-20T11:54:34;101095.31;;;9.61;87.11
4273;BME280;63887;53.656;9.810;2022-12-20T11:57:12;101091.63;;;9.65;86.78
4273;BME280;63887;53.656;9.810;2022-12-20T11:59:44;101092.75;;;9.59;87.12
4273;BME280;63887;53.656;9.810;2022-12-20T12:02:14;101083.56;;;9.69;86.50
4273;BME280;63887;53.656;9.810;2022-12-20T12:04:47;101076.69;;;9.67;86.54
4273;BME280;63887;53.656;9.810;2022-12-20T12:07:18;101092.84;;;9.57;87.23
4273;BME280;63887;53.656;9.810;2022-12-20T12:09:51;101092.13;;;9.54;86.72
4273;BME280;63887;53.656;9.810;2022-12-20T12:12:23;101088.69;;;9.52;86.00
4273;BME280;63887;53.656;9.810;2022-12-20T12:14:57;101077.44;;;9.50;86.22
4273;BME280;63887;53.656;9.810;2022-12-20T12:17:30;101076.75;;;9.46;86.36
4273;BME280;63887;53.656;9.810;2022-12-20T12:20:14;101085.31;;;9.50;86.57
4273;BME280;63887;53.656;9.810;2022-12-20T12:22:47;101083.84;;;9.63;86.00
4273;BME280;63887;53.656;9.810;2022-12-20T12:25:16;101077.59;;;9.66;86.06
4273;BME280;63887;53.656;9.810;2022-12-20T12:27:43;101075.81;;;9.47;86.69
4273;BME280;63887;53.656;9.810;2022-12-20T12:30:12;101077.66;;;9.45;87.35
4273;BME280;63887;53.656;9.810;2022-12-20T12:32:40;101078.22;;;9.33;88.03
4273;BME280;63887;53.656;9.810;2022-12-20T12:35:29;101061.56;;;9.15;88.44
4273;BME280;63887;53.656;9.810;2022-12-20T12:38:20;101068.88;;;9.27;89.00
4273;BME280;63887;53.656;9.810;2022-12-20T12:41:08;101065.88;;;9.16;89.62
4273;BME280;63887;53.656;9.810;2022-12-20T12:43:46;101055.94;;;9.24;89.58
4273;BME280;63887;53.656;9.810;2022-12-20T12:46:16;101053.63;;;9.17;90.04
4273;BME280;63887;53.656;9.810;2022-12-20T12:48:47;101060.63;;;9.16;90.05
4273;BME280;63887;53.656;9.810;2022-12-20T12:51:23;101057.81;;;9.21;89.92
4273;BME280;63887;53.656;9.810;2022-12-20T12:53:53;101051.53;;;9.25;90.75
4273;BME280;63887;53.656;9.810;2022-12-20T12:56:35;101042.25;;;9.18;90.29
4273;BME280;63887;53.656;9.810;2022-12-20T12:59:22;101044.19;;;9.33;90.20
4273;BME280;63887;53.656;9.810;2022-12-20T13:01:51;101041.22;;;9.02;90.54
4273;BME280;63887;53.656;9.810;2022-12-20T13:04:24;101027.84;;;9.28;90.74
4273;BME280;63887;53.656;9.810;2022-12-20T13:07:00;101027.41;;;9.37;90.57
4273;BME280;63887;53.656;9.810;2022-12-20T13:09:41;101028.47;;;9.33;90.92
4273;BME280;63887;53.656;9.810;2022-12-20T13:18:25;101030.31;;;8.92;91.44
4273;BME280;63887;53.656;9.810;2022-12-20T13:21:17;101034.56;;;8.94;92.03
4273;BME280;63887;53.656;9.810;2022-12-20T13:23:45;101030.09;;;9.17;91.21
4273;BME280;63887;53.656;9.810;2022-12-20T13:26:42;101025.13;;;8.90;91.99
4273;BME280;63887;53.656;9.810;2022-12-20T13:29:23;101024.69;;;9.01;92.26
4273;BME280;63887;53.656;9.810;2022-12-20T13:31:51;101027.28;;;9.01;91.97
4273;BME280;63887;53.656;9.810;2022-12-20T13:34:35;101032.47;;;9.03;91.97